Terminal Aerodrome Forecast
Issued by NWS Sterling, VA

Home | Current Version | Previous Version | Text Only | Print | Product List | Glossary On
Versions: 1 2 3 4 5 6 7 8 9 10 11 12 13 14 15 16 17 18 19 20 21 22 23 24 25 26 27
000
FTUS41 KLWX 302337
TAFIAD
TAF
KIAD 302337Z 3100/0106 22012KT 5SM -TSRA OVC060CB
     FM310100 15006KT P6SM -SHRA OVC070
     FM310400 VRB03KT 3SM BR BKN100
     FM311400 32006KT P6SM BKN200
     FM311900 22008KT P6SM BKN060=

USA.gov is the U.S. government's official web portal to all federal, state and local government web resources and services.